首页
METAR-TAF:

METAR-TAF

机场 :

Northwest Arkansas Regional Airport

费耶特维尔, 阿肯色州, 美国

纬度: 36-16-55N, 经度: 094-18-25W, 海拔: 392米

当前天气观测

该预报发布于2小时和30分钟前的02:53 UTC
风速4节,风向西转西南
温度 4°C
湿度 93%
气压 1006 hPa
能見度: 16.1公里
少量云层高于5500英尺

METAR: KXNA 260253Z 25004KT 10SM FEW055 04/03 A2970 RMK AO2 SLP058 T00440028 51022

时间: 23:23 (05:23 UTC)

预报

该预报发布于5小时和54分钟前的23:29 UTC
预报有效从26日的 00点(UTC)到 26日的 24点(UTC)
风速8节,风向西转西南
能見度: 10公里
多云层高于1500英尺
从 26日的 0400点(UTC)
风速7节,风向西
能見度: 10公里
多云层高于2500英尺
从 26日的 0900点(UTC)
风速8节,风向西转西北
能見度: 10公里
多云层高于1500英尺
从 26日的 2100点(UTC)
风速5节,风向北转西北
能見度: 10公里
多云层高于2500英尺

TAF: KXNA 252329Z 2600/2624 24008KT P6SM BKN015 FM260400 26007KT P6SM BKN025 FM260900 29008KT P6SM BKN015 FM262100 33005KT P6SM BKN025

超过4000个机场的气象观测和天气预报(METAR&TAF报告)。

可查询的气象台以黄色和红色小点在地图上表示。

将鼠标移到小点上方,可查看气象台名称。

然后点击查看天气观测和预报。

如需切换地图:点击带黑十字的绿色按钮放大地图;点击带横线的绿色按钮缩小地图;或者点击绿色箭头查看邻近地区的地图。


METAR-TAF: